Flight Track Log - Related Links

Times and Time Zones

All times are in EDT time to prevent confusion due to time zone crossing. See the AAY861 flight status page for this flight to view local times or setup timezone preferences in your user account.

Time Position Orientation Groundspeed Altitude Reporting Facility
EDT Latitude Longitude Course Direction KTS MPH feet Rate Location/Type
Wed 09:13:32 AM 37.9989 -84.6436 173° South 203 234 3,100  Level Indianapolis Center
Wed 09:14:34 AM 37.9358 -84.6336 173° South 230 265 4,400 2,129 Climbing Indianapolis Center
Wed 09:15:36 AM 37.8489 -84.6042 165° South 264 304 7,500 2,661 Climbing Indianapolis Center
Wed 09:16:38 AM 37.7725 -84.5750 163° South 279 321 9,900 1,935 Climbing Indianapolis Center
Wed 09:17:40 AM 37.6881 -84.5442 164° South 305 351 11,500 2,032 Climbing Indianapolis Center
Wed 09:18:42 AM 37.5944 -84.5097 164° South 341 392 14,100 2,274 Climbing Indianapolis Center
Wed 09:19:44 AM 37.5000 -84.4731 163° South 350 403 16,200 1,935 Climbing Indianapolis Center
Wed 09:20:46 AM 37.3828 -84.4314 164° South 369 425 18,100 1,824 Climbing Indianapolis Center
Wed 09:21:49 AM 37.2803 -84.3919 163° South 380 437 20,000 1,584 Climbing Indianapolis Center
Wed 09:22:51 AM 37.1722 -84.3536 164° South 395 455 21,400 1,452 Climbing Indianapolis Center
Wed 09:23:53 AM 37.0619 -84.3119 163° South 405 466 23,000 1,548 Climbing Indianapolis Center
Wed 09:24:55 AM 36.9494 -84.2717 164° South 415 478 24,600 1,597 Climbing Indianapolis Center
Wed 09:25:57 AM 36.8158 -84.2233 164° South 423 487 26,300 1,355 Climbing Indianapolis Center
Wed 09:26:59 AM 36.6969 -84.1789 163° South 439 505 27,400 1,161 Climbing Indianapolis Center
Wed 09:28:01 AM 36.5744 -84.1347 164° South 451 519 28,700 1,065 Climbing Indianapolis Center
Wed 09:29:03 AM 36.4547 -84.0953 165° South 458 527 29,600 968 Climbing Indianapolis Center
Wed 09:30:05 AM 36.3247 -84.1108 186° South 465 535 30,700 1,210 Climbing Indianapolis Center
Wed 09:31:07 AM 36.1672 -84.1303 186° South 467 537 32,100 1,075 Climbing Indianapolis Center
Wed 09:31:51 AM 36.0853 -84.1442 188° South 471 542 32,600 519 Climbing Atlanta Center
Wed 09:32:51 AM 35.9519 -84.1567 184° South 483 556 33,000 564 Climbing Atlanta Center
Wed 09:37:53 AM 35.2332 -84.2451 186° South 485 558 36,000 525 Climbing FlightAware ADS-B (KDZJ)
Wed 09:38:34 AM 35.1415 -84.2561 186° South 486 559 36,000  Level FlightAware ADS-B (KDZJ)
Wed 09:39:14 AM 35.0522 -84.2669 186° South 486 559 36,000  Level FlightAware ADS-B (KDZJ)
Wed 09:39:50 AM 34.9710 -84.2766 186° South 486 559 36,000  Level FlightAware ADS-B (KDZJ)
Wed 09:40:34 AM 34.8728 -84.2884 186° South 486 559 36,000  Level FlightAware ADS-B (KDZJ)
Wed 09:41:13 AM 34.7852 -84.2989 186° South 487 560 36,000  Level FlightAware ADS-B (KDZJ)
Wed 09:41:53 AM 34.6945 -84.3096 186° South 487 560 36,000  Level FlightAware ADS-B (KDZJ)
Wed 09:42:31 AM 34.6094 -84.3198 186° South 487 560 36,000  Level FlightAware ADS-B (KDZJ)
Wed 09:43:14 AM 34.5120 -84.3313 186° South 487 560 36,000  Level FlightAware ADS-B (KDZJ)
Wed 09:43:54 AM 34.4227 -84.3419 186° South 487 560 36,000  Level FlightAware ADS-B (KDZJ)
Wed 09:44:35 AM 34.3307 -84.3529 186° South 488 562 36,000  Level FlightAware ADS-B (KDZJ)
Wed 09:45:15 AM 34.2408 -84.3634 186° South 481 554 36,000  Level FlightAware ADS-B (KDZJ)
Wed 09:45:54 AM 34.1519 -84.3739 186° South 482 555 36,000  Level FlightAware ADS-B (KDZJ)
Wed 09:46:35 AM 34.0594 -84.3847 186° South 483 556 36,000  Level FlightAware ADS-B (KDZJ)
Wed 09:47:14 AM 33.9706 -84.3951 186° South 483 556 36,000 214 Level FlightAware ADS-B (KDZJ)
Wed 09:47:59 AM 33.8695 -84.4070 186° South 483 556 36,300 619 Climbing FlightAware ADS-B (KDZJ)
Wed 09:48:51 AM 33.7811 -84.4211 186° South 495 570 37,000 375 Climbing Atlanta Center
Wed 09:49:51 AM 33.6456 -84.4356 185° South 495 570 37,000  Level Atlanta Center
Wed 09:50:51 AM 33.5264 -84.4350 180° South 495 570 37,000  Level Atlanta Center
Wed 09:51:51 AM 33.3908 -84.4319 179° South 490 564 37,000  Level Atlanta Center
Wed 09:52:51 AM 33.2550 -84.4289 179° South 490 564 37,000  Level Atlanta Center
Wed 09:53:51 AM 33.1194 -84.4283 180° South 490 564 37,000  Level Atlanta Center
Wed 09:54:51 AM 32.9858 -84.4228 178° South 490 564 37,000  Level Atlanta Center
Wed 09:55:51 AM 32.8503 -84.4219 180° South 495 570 37,000  Level Atlanta Center
Wed 09:56:51 AM 32.7042 -84.4189 179° South 490 564 37,000  Level Atlanta Center
Wed 09:57:51 AM 32.5664 -84.4183 180° South 490 564 37,000  Level Atlanta Center
Wed 09:58:51 AM 32.4328 -84.4128 178° South 490 564 37,000  Level Atlanta Center
Wed 09:59:51 AM 32.2992 -84.4122 180° South 490 564 37,000  Level Atlanta Center
Wed 10:00:51 AM 32.1636 -84.4094 179° South 490 564 37,000  Level Atlanta Center
Wed 10:01:51 AM 32.0278 -84.4064 179° South 490 564 37,000  Level Atlanta Center
Wed 10:03:09 AM 31.8611 -84.4017 179° South 490 564 37,000  Level Jacksonville Center
Wed 10:08:52 AM 31.1032 -84.2698 166° South 475 547 37,000  Level FlightAware ADS-B (KONZ)
Wed 10:09:43 AM 30.9972 -84.2383 166° South 476 548 37,000  Level FlightAware ADS-B (KONZ)
Wed 10:10:27 AM 30.8951 -84.2083 166° South 478 550 37,000  Level FlightAware ADS-B (KONZ)
Wed 10:11:12 AM 30.8133 -84.1842 166° South 478 550 37,000 79 Level FlightAware ADS-B (KONZ)
Wed 10:11:43 AM 30.7325 -84.1604 166° South 476 548 37,100  Climbing FlightAware ADS-B (KONZ)
Wed 10:12:22 AM 30.6473 -84.1355 166° South 475 547 37,000 -86 Descending FlightAware ADS-B (KONZ)
Wed 10:12:53 AM 30.5817 -84.1162 166° South 476 548 37,000  Level FlightAware ADS-B (KONZ)
Wed 10:13:32 AM 30.5053 -84.0939 166° South 478 550 37,000  Level FlightAware ADS-B (KONZ)
Wed 10:14:11 AM 30.4153 -84.0676 166° South 480 552 37,000  Level FlightAware ADS-B (KONZ)
Wed 10:14:43 AM 30.3445 -84.0469 166° South 481 554 37,000  Level FlightAware ADS-B (KONZ)
Wed 10:15:23 AM 30.2620 -84.0229 166° South 483 556 37,000  Level FlightAware ADS-B (KONZ)
Wed 10:15:53 AM 30.1974 -84.0041 166° South 481 554 37,000 91 Level FlightAware ADS-B (KONZ)
Wed 10:16:29 AM 30.1154 -83.9804 166° South 480 552 37,100  Climbing FlightAware ADS-B (KONZ)
Wed 10:17:13 AM 30.0218 -83.9533 166° South 476 548 37,000 -65 Descending FlightAware ADS-B (KONZ)
Wed 10:18:02 AM 29.9157 -83.9226 166° South 475 547 37,000 -414 Level FlightAware ADS-B (KONZ)
Wed 10:19:09 AM 29.7847 -83.8786 166° South 477 549 36,200 -803 Descending Jacksonville Center
Wed 10:20:09 AM 29.6703 -83.8008 149° Southeast 460 529 35,300 -1,350 Descending Jacksonville Center
Wed 10:21:09 AM 29.5561 -83.7281 151° Southeast 460 529 33,500 -1,900 Descending Jacksonville Center
Wed 10:22:09 AM 29.4481 -83.6581 151° Southeast 460 529 31,500 -2,000 Descending Jacksonville Center
Wed 10:23:09 AM 29.3439 -83.5906 151° Southeast 447 514 29,500 -2,000 Descending Jacksonville Center
Wed 10:24:09 AM 29.2503 -83.5328 152° Southeast 435 501 27,500 -1,900 Descending Jacksonville Center
Wed 10:25:09 AM 29.1525 -83.4681 150° Southeast 425 489 25,700 -1,750 Descending Jacksonville Center
Wed 10:26:09 AM 29.0525 -83.4056 151° Southeast 414 476 24,000 -1,700 Descending Jacksonville Center
Wed 10:27:09 AM 28.9567 -83.3433 150° Southeast 408 470 22,300 -1,750 Descending Jacksonville Center
Wed 10:28:09 AM 28.8631 -83.2839 151° Southeast 396 456 20,500 -1,698 Descending Jacksonville Center
Wed 10:29:48 AM 28.7222 -83.1917 150° Southeast 364 419 17,800 -1,664 Descending Miami Center
Wed 10:30:26 AM 28.6500 -83.1500 153° Southeast 349 402 16,700 -1,696 Descending Tampa TRACON
Wed 10:31:20 AM 28.5833 -83.1000 147° Southeast 341 392 15,200 -1,550 Descending Tampa TRACON
Wed 10:32:26 AM 28.4833 -83.0500 156° South 335 386 13,600 -1,048 Descending Tampa TRACON
Wed 10:33:26 AM 28.4167 -83.0000 147° Southeast 318 366 13,000 -1,050 Descending Tampa TRACON
Wed 10:34:26 AM 28.3333 -82.9667 161° South 291 335 11,500 -1,304 Descending Tampa TRACON
Wed 10:34:58 AM 28.3117 -82.9494 145° Southeast 297 342 11,000 -1,468 Descending Miami Center
Wed 10:36:00 AM 28.2242 -82.9092 158° South 285 328 9,200 -1,645 Descending Miami Center
Wed 10:37:02 AM 28.1519 -82.8761 158° South 282 325 7,600 -1,500 Descending Miami Center
Wed 10:38:04 AM 28.0836 -82.8428 157° South 276 318 6,100 -1,452 Descending Miami Center
Wed 10:39:06 AM 28.0158 -82.8122 158° South 269 310 4,600 -1,210 Descending Miami Center
Wed 10:40:08 AM 27.9436 -82.7964 169° South 266 306 3,600 -774 Descending Miami Center
Wed 10:41:10 AM 27.8700 -82.7789 168° South 248 285 3,000 -532 Descending Miami Center
Wed 10:42:12 AM 27.8156 -82.7750 176° South 219 252 2,500 -484 Descending Miami Center
Wed 10:43:14 AM 27.7611 -82.7736 179° South 205 236 2,000 -242 Descending Miami Center
Wed 10:44:16 AM 27.7086 -82.7625 169° South 201 231 2,000  Level Miami Center
Wed 10:45:18 AM 27.7106 -82.7056 88° East 196 226 2,000  Level Miami Center
Wed 10:46:20 AM 27.7531 -82.6661 39° Northeast 193 222 2,000 -293 Level Miami Center
Wed 10:47:21 AM 27.8178 -82.6722 355° North 198 228 1,400 -634 Descending Miami Center
Wed 10:48:23 AM 27.8631 -82.6803 351° North 183 211 700 -532 Descending Miami Center
Wed 10:49:25 AM 27.8997 -82.6867 351° North 170 196 300 -387 Descending Miami Center

Login

Don't have an account? Register now (free) for customized features, flight alerts, and more!